createdAt,value
2023-01-17T00:01:18.538Z,10.20
2023-01-17T00:04:24.854Z,9.63
2023-01-17T00:07:32.635Z,8.93
2023-01-17T00:10:24.714Z,9.33
2023-01-17T00:13:16.794Z,9.10
2023-01-17T00:16:21.446Z,8.13
2023-01-17T00:19:28.539Z,9.40
2023-01-17T00:22:40.650Z,8.80
2023-01-17T00:25:51.311Z,8.20
2023-01-17T00:28:43.533Z,9.07
2023-01-17T00:31:33.586Z,7.97
2023-01-17T00:34:21.186Z,8.63
2023-01-17T00:37:08.926Z,9.17
2023-01-17T00:39:56.558Z,9.43
2023-01-17T00:42:45.297Z,10.00
2023-01-17T00:45:55.257Z,10.43
2023-01-17T00:49:01.761Z,10.73
2023-01-17T00:52:07.957Z,11.63
2023-01-17T00:55:14.157Z,12.33
2023-01-17T00:58:25.171Z,12.27
2023-01-17T01:01:36.376Z,12.20
2023-01-17T01:04:42.658Z,12.43
2023-01-17T01:07:48.473Z,12.83
2023-01-17T01:10:56.371Z,13.70
2023-01-17T01:14:02.285Z,13.13
2023-01-17T01:17:09.808Z,12.70
2023-01-17T01:20:15.955Z,13.40
2023-01-17T01:23:23.695Z,13.50
2023-01-17T01:26:30.177Z,13.23
2023-01-17T01:29:36.720Z,12.17
2023-01-17T01:32:44.436Z,12.97
2023-01-17T01:35:33.325Z,12.17
2023-01-17T01:38:24.320Z,12.53
2023-01-17T01:41:13.465Z,12.30
2023-01-17T01:44:02.235Z,11.97
2023-01-17T01:46:51.585Z,12.60
2023-01-17T01:49:41.941Z,11.40
2023-01-17T01:52:33.995Z,12.50
2023-01-17T01:55:26.598Z,11.57
2023-01-17T01:58:20.063Z,12.50
2023-01-17T02:01:09.500Z,12.37
2023-01-17T02:03:59.996Z,11.47
2023-01-17T02:06:57.390Z,11.57
2023-01-17T02:09:46.849Z,11.37
2023-01-17T02:12:36.458Z,11.63
2023-01-17T02:15:31.593Z,11.80
2023-01-17T02:18:29.515Z,11.17
2023-01-17T02:21:25.841Z,11.87
2023-01-17T02:24:47.428Z,11.43
2023-01-17T02:27:52.734Z,11.27
2023-01-17T02:30:45.668Z,11.40
2023-01-17T02:33:40.713Z,11.17
2023-01-17T02:36:34.141Z,10.90
2023-01-17T02:39:28.427Z,11.07
2023-01-17T02:42:20.725Z,11.30
2023-01-17T02:45:10.878Z,11.60
2023-01-17T02:48:01.000Z,11.53
2023-01-17T02:51:09.207Z,11.60
2023-01-17T02:54:19.773Z,12.20
2023-01-17T02:57:19.604Z,11.33
2023-01-17T03:00:19.013Z,11.50
2023-01-17T03:03:23.268Z,13.00
2023-01-17T03:06:14.938Z,12.43
2023-01-17T03:09:06.676Z,12.17
2023-01-17T03:11:55.573Z,12.17
2023-01-17T03:14:44.362Z,11.87
2023-01-17T03:17:34.400Z,11.70
2023-01-17T03:20:24.464Z,12.03
2023-01-17T03:23:13.407Z,12.43
2023-01-17T03:26:02.109Z,11.93
2023-01-17T03:28:50.911Z,11.87
2023-01-17T03:31:39.997Z,11.93
2023-01-17T03:34:28.727Z,12.27
2023-01-17T03:37:19.019Z,12.97
2023-01-17T03:40:09.027Z,12.30
2023-01-17T03:42:58.005Z,12.00
2023-01-17T03:45:51.196Z,10.77
2023-01-17T03:48:44.500Z,11.30
2023-01-17T03:51:33.465Z,10.97
2023-01-17T03:54:25.862Z,11.43
2023-01-17T03:57:15.820Z,11.13
2023-01-17T04:00:05.427Z,10.93
2023-01-17T04:02:55.624Z,11.10
2023-01-17T04:05:44.466Z,11.17
2023-01-17T04:08:33.235Z,11.17
2023-01-17T04:11:23.418Z,11.53
2023-01-17T04:14:12.214Z,10.20
2023-01-17T04:17:01.549Z,11.43
2023-01-17T04:19:50.610Z,10.70
2023-01-17T04:22:39.785Z,10.93
2023-01-17T04:25:30.623Z,10.43
2023-01-17T04:28:22.963Z,11.13
2023-01-17T04:31:17.018Z,10.17
2023-01-17T04:34:06.695Z,10.47
2023-01-17T04:36:55.535Z,10.33
2023-01-17T04:39:44.274Z,11.17
2023-01-17T04:42:33.126Z,9.83
2023-01-17T04:45:23.431Z,10.17
2023-01-17T04:48:13.044Z,10.10
2023-01-17T04:51:02.056Z,9.67
2023-01-17T04:53:50.850Z,10.70
2023-01-17T04:56:39.557Z,10.27
2023-01-17T04:59:28.372Z,10.07
2023-01-17T05:02:18.819Z,9.77
2023-01-17T05:05:08.475Z,10.20
2023-01-17T05:07:57.922Z,10.03
2023-01-17T05:10:47.386Z,10.37
2023-01-17T05:13:36.360Z,10.80
2023-01-17T05:16:25.313Z,9.70
2023-01-17T05:19:29.471Z,9.63
2023-01-17T05:22:20.505Z,10.53
2023-01-17T05:25:11.562Z,10.17
2023-01-17T05:28:01.187Z,10.67
2023-01-17T05:30:51.319Z,10.20
2023-01-17T05:33:40.175Z,10.60
2023-01-17T05:36:30.955Z,10.17
2023-01-17T05:39:20.167Z,11.30
2023-01-17T05:42:08.893Z,10.43
2023-01-17T05:45:00.650Z,10.90
2023-01-17T05:47:50.825Z,10.63
2023-01-17T05:50:41.785Z,10.47
2023-01-17T05:53:42.818Z,10.57
2023-01-17T05:57:07.455Z,10.80
2023-01-17T05:59:59.041Z,11.03
2023-01-17T06:02:50.672Z,10.80
2023-01-17T06:05:40.141Z,10.60
2023-01-17T06:08:29.005Z,11.10
2023-01-17T06:11:25.301Z,10.33
2023-01-17T06:14:14.242Z,9.97
2023-01-17T06:17:03.516Z,10.50
2023-01-17T06:19:54.678Z,10.83
2023-01-17T06:22:44.534Z,9.80
2023-01-17T06:25:37.787Z,9.50
2023-01-17T06:28:30.417Z,9.47
2023-01-17T06:31:19.684Z,9.53
2023-01-17T06:34:08.553Z,9.63
2023-01-17T06:36:57.409Z,10.47
2023-01-17T06:39:46.274Z,10.43
2023-01-17T06:42:35.562Z,9.90
2023-01-17T06:45:25.920Z,9.80
2023-01-17T06:48:17.837Z,9.13
2023-01-17T06:51:06.837Z,10.20
2023-01-17T06:53:55.796Z,10.27
2023-01-17T06:56:44.615Z,10.27
2023-01-17T06:59:33.393Z,10.00
2023-01-17T07:02:23.809Z,9.60
2023-01-17T07:05:12.569Z,10.47
2023-01-17T07:08:03.650Z,9.60
2023-01-17T07:10:53.067Z,9.40
2023-01-17T07:13:42.405Z,9.93
2023-01-17T07:16:31.417Z,9.27
2023-01-17T07:19:21.886Z,9.23
2023-01-17T07:22:11.912Z,9.07
2023-01-17T07:25:02.963Z,8.87
2023-01-17T07:27:57.619Z,9.10
2023-01-17T07:30:46.582Z,9.47
2023-01-17T07:33:36.827Z,9.33
2023-01-17T07:36:37.466Z,9.87
2023-01-17T07:39:26.383Z,9.47
2023-01-17T07:42:18.635Z,9.10
2023-01-17T07:45:19.809Z,8.77
2023-01-17T07:48:09.752Z,9.57
2023-01-17T07:51:03.583Z,8.80
2023-01-17T07:53:59.327Z,9.23
2023-01-17T07:57:01.462Z,9.00
2023-01-17T07:59:51.388Z,8.70
2023-01-17T08:02:40.831Z,9.07
2023-01-17T08:05:30.785Z,9.63
2023-01-17T08:08:19.555Z,9.50
2023-01-17T08:11:09.963Z,9.87
2023-01-17T08:14:00.020Z,8.90
2023-01-17T08:16:48.953Z,8.83
2023-01-17T08:19:37.887Z,9.80
2023-01-17T08:22:26.656Z,9.10
2023-01-17T08:25:15.485Z,8.63
2023-01-17T08:28:06.529Z,8.83
2023-01-17T08:30:55.385Z,8.70
2023-01-17T08:33:44.231Z,8.70
2023-01-17T08:36:33.447Z,9.17
2023-01-17T08:39:22.575Z,8.33
2023-01-17T08:42:11.277Z,8.73
2023-01-17T08:45:01.728Z,9.30
2023-01-17T08:47:50.687Z,8.63
2023-01-17T08:50:39.538Z,8.07
2023-01-17T08:53:28.390Z,7.90
2023-01-17T08:56:17.105Z,8.17
2023-01-17T08:59:05.913Z,8.77
2023-01-17T09:01:58.374Z,8.57
2023-01-17T09:04:47.974Z,8.27
2023-01-17T09:07:36.743Z,7.70
2023-01-17T09:10:25.666Z,8.00
2023-01-17T09:13:14.404Z,7.30
2023-01-17T09:16:03.921Z,7.77
2023-01-17T09:18:57.355Z,8.13
2023-01-17T09:21:46.211Z,7.40
2023-01-17T09:24:35.260Z,9.03
2023-01-17T09:27:24.135Z,8.27
2023-01-17T09:30:13.819Z,7.37
2023-01-17T09:33:02.810Z,7.50
2023-01-17T09:35:52.971Z,7.80
2023-01-17T09:38:41.857Z,8.20
2023-01-17T09:41:33.248Z,7.43
2023-01-17T09:44:28.431Z,8.10
2023-01-17T09:47:22.975Z,7.33
2023-01-17T09:50:30.549Z,8.33
2023-01-17T09:53:22.035Z,7.60
2023-01-17T09:56:15.703Z,7.90
2023-01-17T09:59:32.801Z,7.30
2023-01-17T10:02:50.314Z,7.73
2023-01-17T10:05:51.515Z,8.43
2023-01-17T10:08:55.361Z,7.93
2023-01-17T10:11:55.283Z,8.57
2023-01-17T10:15:03.287Z,7.97
2023-01-17T10:18:01.440Z,8.20
2023-01-17T10:20:59.105Z,8.40
2023-01-17T10:24:17.862Z,8.03
2023-01-17T10:27:17.096Z,8.40
2023-01-17T10:30:17.945Z,8.00
2023-01-17T10:33:16.850Z,8.53
2023-01-17T10:36:11.997Z,7.83
2023-01-17T10:39:03.872Z,8.67
2023-01-17T10:41:59.441Z,8.47
2023-01-17T10:44:54.462Z,8.47
2023-01-17T10:47:47.431Z,8.47
2023-01-17T10:50:46.991Z,9.47
2023-01-17T10:53:46.207Z,8.73
2023-01-17T10:56:36.891Z,9.30
2023-01-17T10:59:31.300Z,9.07
2023-01-17T11:02:25.788Z,9.47
2023-01-17T11:05:22.677Z,9.57
2023-01-17T11:08:13.652Z,9.63
2023-01-17T11:11:05.484Z,9.83
2023-01-17T11:13:56.086Z,9.67
2023-01-17T11:16:46.697Z,10.50
2023-01-17T11:19:37.430Z,9.80
2023-01-17T11:22:26.691Z,10.10
2023-01-17T11:25:23.513Z,9.87
2023-01-17T11:28:23.106Z,10.47
2023-01-17T11:31:26.576Z,9.77
2023-01-17T11:34:19.406Z,10.07
2023-01-17T11:37:18.386Z,10.17
2023-01-17T11:40:20.099Z,9.50
2023-01-17T11:43:24.748Z,10.20
2023-01-17T11:46:18.033Z,9.93
2023-01-17T11:49:06.890Z,9.87
2023-01-17T11:51:58.189Z,10.43
2023-01-17T11:54:49.267Z,10.40
2023-01-17T11:57:37.982Z,10.40
2023-01-17T12:00:34.586Z,10.60
2023-01-17T12:03:36.880Z,11.47
2023-01-17T12:06:47.819Z,10.77
2023-01-17T12:09:51.053Z,10.43
2023-01-17T12:13:09.678Z,10.67
2023-01-17T12:16:26.929Z,11.00
2023-01-17T12:19:36.921Z,10.80
2023-01-17T12:22:35.977Z,10.77
2023-01-17T12:25:47.505Z,10.93
2023-01-17T12:28:56.761Z,11.40
2023-01-17T12:31:50.665Z,11.20
2023-01-17T12:34:47.182Z,11.40
2023-01-17T12:37:40.230Z,11.27
2023-01-17T12:40:34.661Z,11.17
2023-01-17T12:43:31.914Z,11.23
2023-01-17T12:46:28.492Z,11.27
2023-01-17T12:49:23.962Z,11.77
2023-01-17T12:52:20.107Z,11.03
2023-01-17T12:55:15.564Z,12.33
2023-01-17T12:58:12.153Z,12.13
2023-01-17T13:01:05.994Z,11.83
2023-01-17T13:04:04.930Z,11.23
2023-01-17T13:07:03.869Z,11.60
2023-01-17T13:10:06.096Z,11.73
2023-01-17T13:13:03.166Z,11.67
2023-01-17T13:16:01.493Z,11.87
2023-01-17T13:18:54.373Z,12.07
2023-01-17T13:21:43.802Z,11.60
2023-01-17T13:24:42.726Z,11.80
2023-01-17T13:28:09.181Z,11.37
2023-01-17T13:31:28.639Z,11.07
2023-01-17T13:34:46.079Z,11.50
2023-01-17T13:38:07.549Z,11.60
2023-01-17T13:40:58.418Z,12.63
2023-01-17T13:44:08.336Z,11.93
2023-01-17T13:47:01.946Z,12.37
2023-01-17T13:49:56.377Z,12.40
2023-01-17T13:52:45.138Z,11.97
2023-01-17T13:55:47.475Z,11.63
2023-01-17T13:58:58.548Z,11.93
2023-01-17T14:01:54.547Z,11.37
2023-01-17T14:05:10.971Z,11.97
2023-01-17T14:08:03.743Z,12.20
2023-01-17T14:10:55.303Z,12.23
2023-01-17T14:13:44.302Z,12.30
2023-01-17T14:16:33.635Z,11.37
2023-01-17T14:19:27.771Z,11.93
2023-01-17T14:22:25.725Z,11.67
2023-01-17T14:25:17.689Z,12.87
2023-01-17T14:28:22.873Z,12.33
2023-01-17T14:31:14.375Z,12.27
2023-01-17T14:34:13.950Z,12.97
2023-01-17T14:37:07.761Z,12.30
2023-01-17T14:39:58.252Z,12.33
2023-01-17T14:42:49.758Z,12.60
2023-01-17T14:45:39.922Z,13.17
2023-01-17T14:48:29.435Z,12.50
2023-01-17T14:51:23.164Z,12.80
2023-01-17T14:54:22.282Z,13.33
2023-01-17T14:57:26.235Z,12.60
2023-01-17T15:00:21.328Z,13.57
2023-01-17T15:03:13.620Z,13.03
2023-01-17T15:06:13.085Z,13.63
2023-01-17T15:09:03.404Z,12.87
2023-01-17T15:11:53.441Z,13.20
2023-01-17T15:14:45.906Z,13.60
2023-01-17T15:17:34.846Z,13.90
2023-01-17T15:20:24.044Z,13.53
2023-01-17T15:23:19.452Z,13.47
2023-01-17T15:26:12.444Z,14.97
2023-01-17T15:29:05.757Z,14.53
2023-01-17T15:31:59.737Z,14.37
2023-01-17T15:34:50.281Z,14.57
2023-01-17T15:37:41.833Z,14.37
2023-01-17T15:40:33.346Z,14.97
2023-01-17T15:43:31.494Z,13.57
2023-01-17T15:46:26.984Z,14.10
2023-01-17T15:49:19.772Z,14.20
2023-01-17T15:52:17.179Z,13.70
2023-01-17T15:55:15.635Z,13.73
2023-01-17T15:58:06.054Z,14.70
2023-01-17T16:00:57.302Z,14.10
2023-01-17T16:03:55.818Z,14.30
2023-01-17T16:06:46.898Z,13.57
2023-01-17T16:09:43.773Z,13.93
2023-01-17T16:12:32.966Z,15.27
2023-01-17T16:15:22.208Z,14.90
2023-01-17T16:18:16.790Z,14.50
2023-01-17T16:21:14.893Z,15.57
2023-01-17T16:24:07.228Z,16.63
2023-01-17T16:26:56.799Z,15.70
2023-01-17T16:29:46.142Z,16.37
2023-01-17T16:32:35.575Z,16.77
2023-01-17T16:35:27.935Z,17.23
2023-01-17T16:38:17.789Z,17.23
2023-01-17T16:41:08.612Z,17.40
2023-01-17T16:44:02.304Z,18.10
2023-01-17T16:46:51.386Z,16.43
2023-01-17T16:49:40.211Z,17.37
2023-01-17T16:52:29.005Z,17.43
2023-01-17T16:55:22.129Z,17.37
2023-01-17T16:58:12.576Z,17.60
2023-01-17T17:01:01.694Z,18.43
2023-01-17T17:03:50.679Z,17.80
2023-01-17T17:06:41.325Z,18.03
2023-01-17T17:09:30.257Z,18.10
2023-01-17T17:12:19.631Z,19.57
2023-01-17T17:15:11.522Z,19.87
2023-01-17T17:18:00.633Z,19.63
2023-01-17T17:20:49.802Z,19.60
2023-01-17T17:23:39.432Z,18.67
2023-01-17T17:26:31.273Z,18.60
2023-01-17T17:29:20.244Z,18.53
2023-01-17T17:32:11.735Z,18.77
2023-01-17T17:35:00.979Z,16.83
2023-01-17T17:37:49.983Z,17.00
2023-01-17T17:40:39.109Z,16.87
2023-01-17T17:43:28.113Z,16.63
2023-01-17T17:46:17.315Z,16.57
2023-01-17T17:49:07.673Z,16.57
2023-01-17T17:51:56.582Z,17.10
2023-01-17T17:54:45.358Z,16.60
2023-01-17T17:57:34.369Z,17.30
2023-01-17T18:00:23.617Z,17.30
2023-01-17T18:03:12.575Z,17.10
2023-01-17T18:06:08.464Z,17.20
2023-01-17T18:08:57.260Z,17.17
2023-01-17T18:11:46.216Z,17.87
2023-01-17T18:14:35.082Z,16.60
2023-01-17T18:17:23.915Z,16.43
2023-01-17T18:20:14.781Z,16.30
2023-01-17T18:23:04.997Z,18.27
2023-01-17T18:25:54.206Z,18.50
2023-01-17T18:28:43.016Z,19.43
2023-01-17T18:31:32.970Z,20.33
2023-01-17T18:34:24.469Z,19.40
2023-01-17T18:37:13.259Z,18.87
2023-01-17T18:40:03.564Z,19.17
2023-01-17T18:42:52.552Z,20.47
2023-01-17T18:45:41.589Z,20.00
2023-01-17T18:48:30.592Z,20.33
2023-01-17T18:51:21.878Z,20.83
2023-01-17T18:54:10.555Z,21.50
2023-01-17T18:57:00.786Z,20.40
2023-01-17T18:59:49.712Z,22.00
2023-01-17T19:02:38.691Z,21.30
2023-01-17T19:05:27.416Z,21.93
2023-01-17T19:08:16.911Z,23.70
2023-01-17T19:11:06.067Z,22.40
2023-01-17T19:13:57.644Z,22.87
2023-01-17T19:16:46.725Z,23.10
2023-01-17T19:19:35.492Z,23.60
2023-01-17T19:22:24.268Z,23.43
2023-01-17T19:25:13.469Z,23.30
2023-01-17T19:28:02.795Z,24.90
2023-01-17T19:31:03.542Z,23.90
2023-01-17T19:33:54.795Z,24.00
2023-01-17T19:36:43.823Z,23.97
2023-01-17T19:39:33.390Z,25.10
2023-01-17T19:42:22.794Z,24.20
2023-01-17T19:45:14.106Z,23.63
2023-01-17T19:48:04.752Z,24.17
2023-01-17T19:50:54.680Z,23.63
2023-01-17T19:53:43.569Z,23.93
2023-01-17T19:56:32.571Z,25.40
2023-01-17T19:59:22.752Z,25.40
2023-01-17T20:02:12.482Z,26.13
2023-01-17T20:05:03.292Z,25.10
2023-01-17T20:07:52.839Z,24.30
2023-01-17T20:10:41.732Z,24.93
2023-01-17T20:13:30.799Z,26.07
2023-01-17T20:16:19.635Z,26.17
2023-01-17T20:19:08.427Z,26.07
2023-01-17T20:21:58.795Z,25.47
2023-01-17T20:24:48.616Z,25.73
2023-01-17T20:27:37.708Z,25.70
2023-01-17T20:30:30.218Z,26.23
2023-01-17T20:33:19.050Z,27.53
2023-01-17T20:36:11.391Z,27.10
2023-01-17T20:39:05.044Z,27.67
2023-01-17T20:41:53.835Z,27.37
2023-01-17T20:44:42.591Z,28.30
2023-01-17T20:47:31.654Z,26.77
2023-01-17T20:50:20.384Z,27.57
2023-01-17T20:53:09.274Z,27.50
2023-01-17T20:55:59.463Z,27.67
2023-01-17T20:58:49.562Z,28.23
2023-01-17T21:01:40.649Z,27.50
2023-01-17T21:04:29.789Z,28.37
2023-01-17T21:07:19.404Z,28.53
2023-01-17T21:10:08.869Z,28.27
2023-01-17T21:12:59.849Z,27.10
2023-01-17T21:15:50.260Z,29.00
2023-01-17T21:18:39.510Z,27.07
2023-01-17T21:21:30.316Z,27.60
2023-01-17T21:24:20.239Z,28.80
2023-01-17T21:27:09.257Z,29.13
2023-01-17T21:29:59.765Z,27.20
2023-01-17T21:32:48.805Z,28.33
2023-01-17T21:35:37.775Z,27.90
2023-01-17T21:38:27.046Z,26.63
2023-01-17T21:41:15.845Z,27.37
2023-01-17T21:44:08.032Z,27.40
2023-01-17T21:46:59.985Z,28.33
2023-01-17T21:49:48.799Z,28.20
2023-01-17T21:52:37.679Z,28.83
2023-01-17T21:55:43.737Z,28.83
2023-01-17T21:58:44.923Z,27.47
2023-01-17T22:01:34.778Z,27.27
2023-01-17T22:04:25.750Z,28.83
2023-01-17T22:07:14.543Z,29.93
2023-01-17T22:10:03.305Z,30.80
2023-01-17T22:12:53.576Z,31.20
2023-01-17T22:15:42.706Z,31.70
2023-01-17T22:18:32.255Z,33.57
2023-01-17T22:21:24.596Z,32.80
2023-01-17T22:24:16.112Z,32.67
2023-01-17T22:27:05.353Z,32.73
2023-01-17T22:29:54.173Z,32.80
2023-01-17T22:32:42.920Z,33.57
2023-01-17T22:35:32.973Z,34.13
2023-01-17T22:38:23.490Z,32.67
2023-01-17T22:41:16.420Z,33.70
2023-01-17T22:44:05.649Z,35.57
2023-01-17T22:46:54.641Z,34.23
2023-01-17T22:49:43.385Z,36.03
2023-01-17T22:52:32.733Z,35.63
2023-01-17T22:55:22.821Z,34.53
2023-01-17T22:58:11.569Z,36.03
2023-01-17T23:01:06.656Z,38.03
2023-01-17T23:03:57.536Z,36.90
2023-01-17T23:06:46.370Z,35.13
2023-01-17T23:09:35.160Z,36.20
2023-01-17T23:12:25.291Z,36.63
2023-01-17T23:15:31.592Z,36.63
2023-01-17T23:18:37.621Z,36.47
2023-01-17T23:21:46.398Z,35.30
2023-01-17T23:24:35.173Z,36.03
2023-01-17T23:27:44.739Z,35.90
2023-01-17T23:30:35.641Z,34.93
2023-01-17T23:33:24.827Z,36.67
2023-01-17T23:36:13.648Z,37.00
2023-01-17T23:39:02.485Z,34.67
2023-01-17T23:42:08.674Z,37.63
2023-01-17T23:44:58.698Z,37.63
2023-01-17T23:47:47.835Z,37.97
2023-01-17T23:50:37.005Z,38.47
2023-01-17T23:53:26.251Z,38.60
2023-01-17T23:56:18.519Z,37.83
2023-01-17T23:59:07.566Z,36.63
